createdAt,value
2022-09-17T00:02:15.666Z,98523.06
2022-09-17T00:04:45.376Z,98520.19
2022-09-17T00:07:14.357Z,98516.31
2022-09-17T00:09:43.522Z,98511.59
2022-09-17T00:12:13.146Z,98506.16
2022-09-17T00:14:44.777Z,98507.53
2022-09-17T00:17:14.571Z,98507.28
2022-09-17T00:19:42.937Z,98512.78
2022-09-17T00:22:11.302Z,98516.03
2022-09-17T00:24:39.521Z,98519.53
2022-09-17T00:27:07.610Z,98517.28
2022-09-17T00:29:37.895Z,98523.59
2022-09-17T00:32:06.277Z,98523.16
2022-09-17T00:34:36.046Z,98528.56
2022-09-17T00:37:04.756Z,98525.78
2022-09-17T00:39:33.336Z,98537.69
2022-09-17T00:42:05.758Z,98534.47
2022-09-17T00:44:46.592Z,98534.84
2022-09-17T00:47:20.774Z,98541.13
2022-09-17T00:49:53.799Z,98542.91
2022-09-17T00:52:26.770Z,98534.31
2022-09-17T00:55:02.069Z,98546.00
2022-09-17T00:57:33.617Z,98540.81
2022-09-17T01:00:02.881Z,98549.50
2022-09-17T01:02:31.317Z,98546.69
2022-09-17T01:05:01.066Z,98553.94
2022-09-17T01:08:08.669Z,98555.88
2022-09-17T01:11:09.628Z,98556.06
2022-09-17T01:13:52.322Z,98568.38
2022-09-17T01:16:28.735Z,98562.13
2022-09-17T01:19:14.249Z,98564.00
2022-09-17T01:21:52.467Z,98562.44
2022-09-17T01:24:40.583Z,98567.97
2022-09-17T01:27:45.702Z,98577.84
2022-09-17T01:30:23.442Z,98577.56
2022-09-17T01:32:59.824Z,98579.56
2022-09-17T01:35:37.956Z,98583.53
2022-09-17T01:38:14.517Z,98583.84
2022-09-17T01:40:49.621Z,98593.50
2022-09-17T01:43:26.412Z,98594.34
2022-09-17T01:45:58.999Z,98593.38
2022-09-17T01:48:33.971Z,98601.16
2022-09-17T01:51:08.358Z,98599.13
2022-09-17T01:53:44.923Z,98596.28
2022-09-17T01:56:17.993Z,98600.38
2022-09-17T01:58:52.124Z,98596.91
2022-09-17T02:01:26.402Z,98601.03
2022-09-17T02:04:01.136Z,98592.16
2022-09-17T02:06:34.951Z,98590.47
2022-09-17T02:09:07.401Z,98595.66
2022-09-17T02:11:38.727Z,98608.50
2022-09-17T02:14:13.115Z,98601.47
2022-09-17T02:16:48.500Z,98610.91
2022-09-17T02:19:23.138Z,98604.13
2022-09-17T02:22:00.167Z,98604.66
2022-09-17T02:24:34.849Z,98613.63
2022-09-17T02:27:08.900Z,98617.47
2022-09-17T02:29:39.408Z,98613.00
2022-09-17T02:32:08.293Z,98612.38
2022-09-17T02:34:38.718Z,98622.44
2022-09-17T02:37:10.061Z,98627.09
2022-09-17T02:39:39.762Z,98620.31
2022-09-17T02:42:18.507Z,98616.50
2022-09-17T02:45:00.007Z,98628.47
2022-09-17T02:47:48.953Z,98623.41
2022-09-17T02:50:32.363Z,98622.78
2022-09-17T02:53:12.463Z,98625.84
2022-09-17T02:55:48.376Z,98619.91
2022-09-17T02:58:25.241Z,98617.59
2022-09-17T03:00:54.353Z,98622.34
2022-09-17T03:03:30.025Z,98624.44
2022-09-17T03:06:02.037Z,98632.31
2022-09-17T03:08:31.930Z,98627.28
2022-09-17T03:11:00.231Z,98629.00
2022-09-17T03:13:31.164Z,98631.03
2022-09-17T03:15:59.572Z,98638.31
2022-09-17T03:18:28.007Z,98640.31
2022-09-17T03:20:56.496Z,98632.50
2022-09-17T03:23:28.337Z,98636.09
2022-09-17T03:25:56.618Z,98641.19
2022-09-17T03:28:26.739Z,98628.16
2022-09-17T03:30:55.648Z,98631.97
2022-09-17T03:33:24.109Z,98629.22
2022-09-17T03:35:52.517Z,98620.34
2022-09-17T03:38:21.766Z,98633.25
2022-09-17T03:41:00.576Z,98637.19
2022-09-17T03:43:28.999Z,98642.47
2022-09-17T03:45:57.395Z,98642.97
2022-09-17T03:48:26.792Z,98644.78
2022-09-17T03:50:56.532Z,98643.31
2022-09-17T03:53:25.029Z,98642.38
2022-09-17T03:55:53.426Z,98644.16
2022-09-17T03:58:24.561Z,98655.25
2022-09-17T04:00:54.913Z,98642.56
2022-09-17T04:03:23.825Z,98643.63
2022-09-17T04:05:52.521Z,98652.41
2022-09-17T04:08:22.634Z,98649.75
2022-09-17T04:10:52.186Z,98659.72
2022-09-17T04:13:21.294Z,98652.91
2022-09-17T04:15:52.328Z,98657.91
2022-09-17T04:18:20.879Z,98659.28
2022-09-17T04:20:49.469Z,98664.56
2022-09-17T04:23:18.044Z,98658.53
2022-09-17T04:25:46.401Z,98660.13
2022-09-17T04:28:14.826Z,98662.47
2022-09-17T04:30:44.486Z,98669.00
2022-09-17T04:33:14.484Z,98662.25
2022-09-17T04:35:43.786Z,98675.13
2022-09-17T04:38:14.336Z,98673.66
2022-09-17T04:40:43.724Z,98666.69
2022-09-17T04:43:12.163Z,98677.34
2022-09-17T04:45:42.239Z,98681.16
2022-09-17T04:48:12.069Z,98684.44
2022-09-17T04:50:42.130Z,98689.94
2022-09-17T04:53:11.125Z,98691.84
2022-09-17T04:55:39.801Z,98685.69
2022-09-17T04:58:08.000Z,98690.66
2022-09-17T05:00:39.191Z,98681.16
2022-09-17T05:03:07.791Z,98698.06
2022-09-17T05:05:36.449Z,98698.72
2022-09-17T05:08:08.577Z,98702.63
2022-09-17T05:10:43.776Z,98692.69
2022-09-17T05:13:12.403Z,98700.94
2022-09-17T05:15:40.960Z,98709.72
2022-09-17T05:18:09.364Z,98701.88
2022-09-17T05:20:37.552Z,98705.50
2022-09-17T05:23:07.560Z,98702.47
2022-09-17T05:25:37.111Z,98700.19
2022-09-17T05:28:05.428Z,98701.78
2022-09-17T05:30:33.864Z,98700.72
2022-09-17T05:33:03.304Z,98702.94
2022-09-17T05:35:32.125Z,98707.31
2022-09-17T05:38:01.839Z,98711.22
2022-09-17T05:40:33.501Z,98713.97
2022-09-17T05:43:02.816Z,98713.34
2022-09-17T05:45:31.828Z,98713.88
2022-09-17T05:48:01.765Z,98705.28
2022-09-17T05:50:31.665Z,98709.13
2022-09-17T05:53:05.968Z,98715.69
2022-09-17T05:55:37.324Z,98716.44
2022-09-17T05:58:16.255Z,98714.31
2022-09-17T06:00:47.694Z,98711.03
2022-09-17T06:03:19.002Z,98714.00
2022-09-17T06:05:55.369Z,98714.31
2022-09-17T06:08:24.592Z,98712.53
2022-09-17T06:10:56.973Z,98716.97
2022-09-17T06:13:28.617Z,98720.47
2022-09-17T06:15:57.220Z,98719.16
2022-09-17T06:18:25.588Z,98724.06
2022-09-17T06:20:56.432Z,98719.59
2022-09-17T06:23:25.706Z,98724.66
2022-09-17T06:25:58.683Z,98723.09
2022-09-17T06:28:27.256Z,98717.50
2022-09-17T06:30:57.557Z,98716.97
2022-09-17T06:33:29.393Z,98707.75
2022-09-17T06:36:01.803Z,98724.16
2022-09-17T06:38:30.901Z,98720.25
2022-09-17T06:41:00.819Z,98722.47
2022-09-17T06:43:29.558Z,98713.09
2022-09-17T06:45:59.379Z,98723.81
2022-09-17T06:48:28.698Z,98723.16
2022-09-17T06:50:58.071Z,98720.94
2022-09-17T06:53:26.735Z,98711.13
2022-09-17T06:56:02.329Z,98720.47
2022-09-17T06:58:37.333Z,98720.28
2022-09-17T07:01:07.342Z,98721.00
2022-09-17T07:03:36.456Z,98713.47
2022-09-17T07:06:05.366Z,98718.22
2022-09-17T07:08:36.218Z,98709.56
2022-09-17T07:11:06.252Z,98695.34
2022-09-17T07:13:36.836Z,98712.00
2022-09-17T07:16:07.796Z,98702.19
2022-09-17T07:18:36.437Z,98700.13
2022-09-17T07:21:06.561Z,98683.66
2022-09-17T07:23:36.710Z,98690.53
2022-09-17T07:26:07.838Z,98687.09
2022-09-17T07:28:47.703Z,98682.31
2022-09-17T07:31:17.413Z,98694.28
2022-09-17T07:33:47.644Z,98684.50
2022-09-17T07:36:20.334Z,98686.06
2022-09-17T07:38:48.809Z,98690.78
2022-09-17T07:41:18.875Z,98691.50
2022-09-17T07:43:52.119Z,98694.59
2022-09-17T07:46:22.281Z,98691.25
2022-09-17T07:48:52.341Z,98686.91
2022-09-17T07:51:23.488Z,98705.28
2022-09-17T07:53:53.343Z,98695.72
2022-09-17T07:56:22.194Z,98695.19
2022-09-17T07:58:52.620Z,98692.47
2022-09-17T08:01:23.131Z,98691.34
2022-09-17T08:03:53.189Z,98701.28
2022-09-17T08:06:26.061Z,98697.66
2022-09-17T08:08:56.447Z,98689.31
2022-09-17T08:11:51.707Z,98691.13
2022-09-17T08:14:21.515Z,98691.50
2022-09-17T08:16:54.576Z,98682.91
2022-09-17T08:19:22.707Z,98674.09
2022-09-17T08:21:51.333Z,98680.13
2022-09-17T08:24:21.522Z,98662.59
2022-09-17T08:26:52.463Z,98670.66
2022-09-17T08:29:23.890Z,98679.44
2022-09-17T08:31:54.397Z,98676.34
2022-09-17T08:34:23.074Z,98677.88
2022-09-17T08:36:53.812Z,98679.53
2022-09-17T08:39:22.310Z,98682.09
2022-09-17T08:41:56.946Z,98673.16
2022-09-17T08:44:33.493Z,98678.75
2022-09-17T08:47:06.464Z,98682.09
2022-09-17T08:49:38.267Z,98683.88
2022-09-17T08:52:37.543Z,98678.22
2022-09-17T08:55:16.919Z,98684.78
2022-09-17T08:57:57.759Z,98672.56
2022-09-17T09:00:31.076Z,98669.75
2022-09-17T09:03:19.191Z,98670.22
2022-09-17T09:05:53.113Z,98668.38
2022-09-17T09:08:31.356Z,98663.00
2022-09-17T09:11:02.716Z,98670.97
2022-09-17T09:13:36.742Z,98658.50
2022-09-17T09:16:16.577Z,98669.97
2022-09-17T09:18:45.346Z,98663.88
2022-09-17T09:21:28.105Z,98674.59
2022-09-17T09:24:01.808Z,98674.28
2022-09-17T09:26:45.343Z,98683.03
2022-09-17T09:29:25.853Z,98686.06
2022-09-17T09:32:24.793Z,98698.06
2022-09-17T09:34:57.928Z,98699.53
2022-09-17T09:37:30.278Z,98708.13
2022-09-17T09:40:07.145Z,98708.38
2022-09-17T09:42:39.537Z,98711.25
2022-09-17T09:45:17.225Z,98726.22
2022-09-17T09:51:07.222Z,98731.81
2022-09-17T09:53:48.279Z,98731.22
2022-09-17T09:56:45.345Z,98738.47
2022-09-17T09:59:13.976Z,98734.09
2022-09-17T10:01:45.283Z,98737.97
2022-09-17T10:04:20.382Z,98727.09
2022-09-17T10:06:53.287Z,98727.16
2022-09-17T10:09:22.791Z,98715.25
2022-09-17T10:12:03.582Z,98725.22
2022-09-17T10:14:33.492Z,98719.81
2022-09-17T10:17:19.739Z,98716.38
2022-09-17T10:19:49.456Z,98711.25
2022-09-17T10:22:27.322Z,98700.91
2022-09-17T10:24:57.767Z,98700.16
2022-09-17T10:27:28.769Z,98711.53
2022-09-17T10:30:04.660Z,98711.91
2022-09-17T10:32:34.701Z,98697.03
2022-09-17T10:35:06.074Z,98703.19
2022-09-17T10:37:44.851Z,98709.59
2022-09-17T10:40:30.242Z,98711.34
2022-09-17T10:43:24.097Z,98712.34
2022-09-17T10:46:02.518Z,98703.66
2022-09-17T10:48:37.944Z,98686.91
2022-09-17T10:51:09.045Z,98690.34
2022-09-17T10:54:09.848Z,98689.66
2022-09-17T10:56:44.869Z,98680.94
2022-09-17T10:59:46.801Z,98699.19
2022-09-17T11:02:49.710Z,98685.00
2022-09-17T11:05:38.371Z,98687.06
2022-09-17T11:08:15.407Z,98689.22
2022-09-17T11:11:00.301Z,98682.19
2022-09-17T11:13:39.791Z,98668.69
2022-09-17T11:16:22.070Z,98672.38
2022-09-17T11:19:01.090Z,98684.66
2022-09-17T11:21:50.684Z,98686.88
2022-09-17T11:24:50.295Z,98689.78
2022-09-17T11:27:36.361Z,98686.94
2022-09-17T11:30:11.931Z,98704.00
2022-09-17T11:33:02.611Z,98676.84
2022-09-17T11:35:34.918Z,98671.91
2022-09-17T11:38:10.233Z,98664.66
2022-09-17T11:40:44.567Z,98670.06
2022-09-17T11:43:29.105Z,98664.38
2022-09-17T11:46:03.014Z,98658.47
2022-09-17T11:48:36.856Z,98662.69
2022-09-17T11:51:21.647Z,98647.69
2022-09-17T11:53:57.134Z,98657.91
2022-09-17T11:56:28.762Z,98653.00
2022-09-17T11:59:03.882Z,98656.91
2022-09-17T12:01:39.479Z,98645.31
2022-09-17T12:04:26.473Z,98656.69
2022-09-17T12:07:01.754Z,98643.00
2022-09-17T12:09:39.208Z,98637.13
2022-09-17T12:12:37.802Z,98646.31
2022-09-17T12:15:15.457Z,98636.69
2022-09-17T12:17:50.536Z,98641.16
2022-09-17T12:20:28.696Z,98629.50
2022-09-17T12:23:00.270Z,98627.13
2022-09-17T12:25:37.351Z,98620.25
2022-09-17T12:28:14.027Z,98627.53
2022-09-17T12:30:51.226Z,98632.00
2022-09-17T12:33:27.614Z,98625.78
2022-09-17T12:36:11.294Z,98622.78
2022-09-17T12:39:02.663Z,98626.31
2022-09-17T12:41:43.382Z,98605.81
2022-09-17T12:44:41.233Z,98611.25
2022-09-17T12:47:34.967Z,98612.19
2022-09-17T12:50:16.232Z,98622.75
2022-09-17T12:53:00.448Z,98624.88
2022-09-17T12:55:45.458Z,98616.63
2022-09-17T12:58:28.811Z,98612.50
2022-09-17T13:01:03.997Z,98609.69
2022-09-17T13:03:38.901Z,98617.41
2022-09-17T13:06:40.443Z,98610.63
2022-09-17T13:09:39.455Z,98610.34
2022-09-17T13:12:34.081Z,98627.16
2022-09-17T13:15:24.748Z,98619.72
2022-09-17T13:18:13.227Z,98622.41
2022-09-17T13:21:03.767Z,98618.28
2022-09-17T13:23:40.480Z,98634.03
2022-09-17T13:26:10.797Z,98623.38
2022-09-17T13:28:47.726Z,98630.56
2022-09-17T13:31:23.055Z,98638.50
2022-09-17T13:34:01.824Z,98647.84
2022-09-17T13:36:41.304Z,98661.72
2022-09-17T13:39:13.427Z,98656.72
2022-09-17T13:41:44.111Z,98666.06
2022-09-17T13:44:13.518Z,98660.34
2022-09-17T13:46:41.785Z,98654.13
2022-09-17T13:49:17.407Z,98654.50
2022-09-17T13:51:54.823Z,98638.03
2022-09-17T13:54:37.710Z,98646.03
2022-09-17T13:57:20.359Z,98647.06
2022-09-17T14:00:01.583Z,98654.69
2022-09-17T14:02:39.416Z,98637.38
2022-09-17T14:05:49.687Z,98632.25
2022-09-17T14:08:50.335Z,98632.34
2022-09-17T14:11:41.607Z,98629.13
2022-09-17T14:14:42.726Z,98656.97
2022-09-17T14:17:12.399Z,98653.38
2022-09-17T14:19:51.503Z,98652.53
2022-09-17T14:22:26.996Z,98640.13
2022-09-17T14:24:58.413Z,98637.63
2022-09-17T14:27:56.523Z,98636.38
2022-09-17T14:30:30.885Z,98638.75
2022-09-17T14:33:09.076Z,98640.22
2022-09-17T14:35:40.782Z,98646.72
2022-09-17T14:38:15.582Z,98653.53
2022-09-17T14:41:03.135Z,98640.94
2022-09-17T14:43:44.230Z,98651.41
2022-09-17T14:46:21.348Z,98636.84
2022-09-17T14:48:52.187Z,98638.94
2022-09-17T14:51:30.182Z,98648.66
2022-09-17T14:54:23.933Z,98646.72
2022-09-17T14:57:26.935Z,98618.84
2022-09-17T14:59:58.928Z,98633.56
2022-09-17T15:02:35.638Z,98629.34
2022-09-17T15:05:17.740Z,98632.72
2022-09-17T15:07:47.244Z,98632.97
2022-09-17T15:10:20.785Z,98637.47
2022-09-17T15:12:58.732Z,98645.59
2022-09-17T15:15:32.350Z,98643.66
2022-09-17T15:18:01.834Z,98631.81
2022-09-17T15:20:33.924Z,98640.88
2022-09-17T15:23:12.604Z,98639.38
2022-09-17T15:25:43.003Z,98639.84
2022-09-17T15:28:21.858Z,98636.53
2022-09-17T15:30:53.377Z,98640.03
2022-09-17T15:33:26.785Z,98638.22
2022-09-17T15:36:23.777Z,98638.78
2022-09-17T15:38:54.727Z,98633.16
2022-09-17T15:41:37.847Z,98627.69
2022-09-17T15:44:30.805Z,98639.31
2022-09-17T15:47:33.643Z,98640.63
2022-09-17T15:50:18.421Z,98642.56
2022-09-17T15:52:47.394Z,98650.28
2022-09-17T15:55:39.174Z,98651.25
2022-09-17T15:58:28.144Z,98655.81
2022-09-17T16:01:34.274Z,98670.28
2022-09-17T16:04:27.450Z,98679.19
2022-09-17T16:07:17.975Z,98673.19
2022-09-17T16:09:49.206Z,98668.84
2022-09-17T16:12:22.945Z,98669.72
2022-09-17T16:14:53.578Z,98671.41
2022-09-17T16:17:39.586Z,98666.44
2022-09-17T16:20:18.522Z,98673.22
2022-09-17T16:22:48.458Z,98682.53
2022-09-17T16:25:17.082Z,98685.41
2022-09-17T16:27:51.191Z,98683.16
2022-09-17T16:30:22.206Z,98690.41
2022-09-17T16:32:50.895Z,98697.63
2022-09-17T16:35:22.945Z,98703.19
2022-09-17T16:37:51.286Z,98710.69
2022-09-17T16:40:20.090Z,98702.25
2022-09-17T16:42:50.729Z,98697.31
2022-09-17T16:45:20.552Z,98695.72
2022-09-17T16:47:50.307Z,98693.25
2022-09-17T16:50:21.496Z,98687.56
2022-09-17T16:52:50.552Z,98676.38
2022-09-17T16:55:20.123Z,98674.09
2022-09-17T16:57:48.720Z,98671.69
2022-09-17T17:00:21.702Z,98677.19
2022-09-17T17:02:55.178Z,98672.50
2022-09-17T17:05:28.025Z,98664.06
2022-09-17T17:07:56.802Z,98658.13
2022-09-17T17:10:27.536Z,98675.97
2022-09-17T17:13:03.764Z,98677.47
2022-09-17T17:15:32.469Z,98684.44
2022-09-17T17:18:05.975Z,98677.81
2022-09-17T17:20:38.792Z,98679.75
2022-09-17T17:23:07.225Z,98681.00
2022-09-17T17:25:35.582Z,98681.47
2022-09-17T17:28:14.538Z,98690.97
2022-09-17T17:30:44.458Z,98694.41
2022-09-17T17:33:13.691Z,98696.38
2022-09-17T17:35:48.012Z,98699.16
2022-09-17T17:38:18.745Z,98704.81
2022-09-17T17:40:47.929Z,98701.78
2022-09-17T17:43:20.965Z,98702.63
2022-09-17T17:45:53.343Z,98705.56
2022-09-17T17:48:22.904Z,98715.44
2022-09-17T17:50:56.497Z,98729.53
2022-09-17T17:53:27.017Z,98721.53
2022-09-17T17:55:59.640Z,98729.19
2022-09-17T17:58:30.491Z,98735.47
2022-09-17T18:00:59.626Z,98747.03
2022-09-17T18:03:28.330Z,98750.50
2022-09-17T18:06:00.979Z,98748.22
2022-09-17T18:08:29.264Z,98751.69
2022-09-17T18:11:03.585Z,98756.25
2022-09-17T18:13:36.009Z,98759.84
2022-09-17T18:16:06.261Z,98763.47
2022-09-17T18:18:39.731Z,98764.13
2022-09-17T18:21:13.499Z,98755.09
2022-09-17T18:23:42.533Z,98755.63
2022-09-17T18:26:15.241Z,98760.59
2022-09-17T18:28:44.617Z,98763.94
2022-09-17T18:31:22.206Z,98757.00
2022-09-17T18:33:55.579Z,98757.88
2022-09-17T18:36:27.378Z,98771.13
2022-09-17T18:39:03.569Z,98773.03
2022-09-17T18:41:40.972Z,98787.56
2022-09-17T18:44:10.212Z,98788.97
2022-09-17T18:46:39.230Z,98775.38
2022-09-17T18:49:07.833Z,98781.63
2022-09-17T18:51:39.433Z,98779.09
2022-09-17T18:54:10.647Z,98776.78
2022-09-17T18:56:40.607Z,98790.88
2022-09-17T18:59:09.364Z,98783.97
2022-09-17T19:01:38.060Z,98784.53
2022-09-17T19:04:07.961Z,98797.44
2022-09-17T19:06:37.755Z,98807.94
2022-09-17T19:09:06.824Z,98811.31
2022-09-17T19:11:36.361Z,98815.56
2022-09-17T19:14:04.640Z,98815.47
2022-09-17T19:16:32.876Z,98812.28
2022-09-17T19:19:01.635Z,98815.91
2022-09-17T19:21:30.251Z,98829.66
2022-09-17T19:24:00.552Z,98812.59
2022-09-17T19:26:29.558Z,98832.19
2022-09-17T19:29:00.548Z,98828.81
2022-09-17T19:31:30.127Z,98835.34
2022-09-17T19:33:59.883Z,98836.03
2022-09-17T19:36:28.472Z,98833.16
2022-09-17T19:38:58.806Z,98849.03
2022-09-17T19:41:29.024Z,98852.31
2022-09-17T19:43:57.466Z,98848.31
2022-09-17T19:46:27.507Z,98836.34
2022-09-17T19:48:57.956Z,98848.38
2022-09-17T19:51:28.487Z,98843.19
2022-09-17T19:53:58.410Z,98842.91
2022-09-17T19:56:29.650Z,98835.41
2022-09-17T19:58:58.178Z,98838.75
2022-09-17T20:01:26.642Z,98845.84
2022-09-17T20:03:55.202Z,98841.94
2022-09-17T20:06:24.604Z,98846.38
2022-09-17T20:08:56.306Z,98846.91
2022-09-17T20:11:26.951Z,98841.72
2022-09-17T20:14:07.150Z,98832.84
2022-09-17T20:16:45.429Z,98833.78
2022-09-17T20:19:16.966Z,98837.59
2022-09-17T20:21:50.119Z,98832.00
2022-09-17T20:24:20.002Z,98827.31
2022-09-17T20:26:48.409Z,98829.56
2022-09-17T20:29:18.662Z,98827.09
2022-09-17T20:31:47.520Z,98829.44
2022-09-17T20:34:16.148Z,98835.84
2022-09-17T20:36:44.427Z,98833.66
2022-09-17T20:39:18.178Z,98836.81
2022-09-17T20:41:50.308Z,98838.50
2022-09-17T20:44:21.093Z,98837.78
2022-09-17T20:46:49.656Z,98839.06
2022-09-17T20:49:18.151Z,98843.19
2022-09-17T20:51:49.289Z,98840.31
2022-09-17T20:54:17.887Z,98850.28
2022-09-17T20:56:46.693Z,98855.28
2022-09-17T20:59:18.830Z,98851.69
2022-09-17T21:01:50.568Z,98858.78
2022-09-17T21:04:21.364Z,98856.44
2022-09-17T21:06:55.459Z,98866.34
2022-09-17T21:09:23.898Z,98862.44
2022-09-17T21:11:53.637Z,98859.06
2022-09-17T21:14:21.825Z,98861.66
2022-09-17T21:16:51.981Z,98866.50
2022-09-17T21:19:23.287Z,98864.59
2022-09-17T21:21:55.856Z,98868.66
2022-09-17T21:24:24.973Z,98863.72
2022-09-17T21:26:54.488Z,98866.16
2022-09-17T21:29:22.908Z,98868.63
2022-09-17T21:31:53.460Z,98869.59
2022-09-17T21:34:22.542Z,98868.06
2022-09-17T21:36:51.680Z,98873.38
2022-09-17T21:39:20.403Z,98870.53
2022-09-17T21:41:50.203Z,98871.78
2022-09-17T21:44:19.292Z,98866.19
2022-09-17T21:46:47.482Z,98862.78
2022-09-17T21:49:17.587Z,98869.69
2022-09-17T21:51:50.873Z,98865.03
2022-09-17T21:54:19.578Z,98868.72
2022-09-17T21:56:48.376Z,98870.31
2022-09-17T21:59:17.783Z,98880.47
2022-09-17T22:01:47.635Z,98890.22
2022-09-17T22:04:19.110Z,98883.97
2022-09-17T22:06:49.455Z,98888.19
2022-09-17T22:09:21.129Z,98898.81
2022-09-17T22:11:50.052Z,98895.28
2022-09-17T22:14:23.047Z,98892.97
2022-09-17T22:16:54.342Z,98891.16
2022-09-17T22:19:25.646Z,98892.56
2022-09-17T22:21:56.010Z,98896.91
2022-09-17T22:24:25.375Z,98894.59
2022-09-17T22:26:58.255Z,98896.81
2022-09-17T22:29:28.473Z,98896.16
2022-09-17T22:31:57.472Z,98900.81
2022-09-17T22:34:27.213Z,98891.59
2022-09-17T22:36:55.263Z,98895.72
2022-09-17T22:39:23.624Z,98897.31
2022-09-17T22:41:51.850Z,98895.59
2022-09-17T22:44:21.182Z,98897.41
2022-09-17T22:46:50.969Z,98894.78
2022-09-17T22:49:20.364Z,98906.72
2022-09-17T22:51:50.318Z,98901.34
2022-09-17T22:54:20.317Z,98907.69
2022-09-17T22:56:50.461Z,98908.50
2022-09-17T22:59:19.669Z,98910.75
2022-09-17T23:01:48.092Z,98914.78
2022-09-17T23:04:16.679Z,98911.28
2022-09-17T23:06:45.991Z,98909.69
2022-09-17T23:09:17.623Z,98914.78
2022-09-17T23:11:45.953Z,98907.78
2022-09-17T23:14:17.832Z,98909.47
2022-09-17T23:16:48.835Z,98913.28
2022-09-17T23:19:19.215Z,98910.41
2022-09-17T23:21:48.145Z,98914.63
2022-09-17T23:24:20.485Z,98911.38
2022-09-17T23:26:49.475Z,98914.25
2022-09-17T23:29:19.857Z,98913.19
2022-09-17T23:31:48.000Z,98914.84
2022-09-17T23:34:16.348Z,98901.00
2022-09-17T23:36:45.049Z,98910.84
2022-09-17T23:39:13.423Z,98918.06
2022-09-17T23:41:45.739Z,98904.84
2022-09-17T23:44:16.242Z,98900.31
2022-09-17T23:46:48.360Z,98900.06
2022-09-17T23:49:17.176Z,98901.97
2022-09-17T23:51:46.028Z,98903.44
2022-09-17T23:54:14.665Z,98910.78
2022-09-17T23:56:44.432Z,98897.91
2022-09-17T23:59:14.048Z,98907.25
